Terminal Aerodrome Forecast
Issued by NWS

Home | Current Version | Previous Version | Text Only | Print | Product List | Glossary On
Versions: 1 2 3 4 5 6 7 8 9 10 11 12 13 14 15 16 17 18 19 20 21 22 23 24 25 26 27 28 29 30 31 32 33
000
FTUS46 KLOX 281730
TAFLAX
TAF
KLAX 281730Z 2818/2924 VRB04KT P6SM SKC
     FM281900 26007KT P6SM SKC
     FM282000 26012KT P6SM SKC
     FM290400 VRB03KT 6SM HZ SCT003
     FM290700 VRB03KT 5SM BR OVC003
     FM291600 VRB03KT 6SM HZ BKN006
     FM291800 24006KT P6SM SCT008
     FM292000 27010KT P6SM BKN180=

USA.gov is the U.S. government's official web portal to all federal, state and local government web resources and services.